createdAt,value
2016-05-15T00:00:13.622Z,1007.79
2016-05-15T00:01:13.593Z,1007.78
2016-05-15T00:02:13.580Z,1007.78
2016-05-15T00:03:13.567Z,1007.78
2016-05-15T00:04:13.555Z,1007.79
2016-05-15T00:05:13.527Z,1007.83
2016-05-15T00:06:13.513Z,1007.82
2016-05-15T00:07:13.500Z,1007.81
2016-05-15T00:08:13.471Z,1007.83
2016-05-15T00:09:13.458Z,1007.85
2016-05-15T00:10:13.429Z,1007.83
2016-05-15T00:11:13.418Z,1007.88
2016-05-15T00:12:13.404Z,1007.85
2016-05-15T00:13:13.391Z,1007.93
2016-05-15T00:14:13.362Z,1007.91
2016-05-15T00:15:13.350Z,1007.93
2016-05-15T00:16:13.321Z,1007.9
2016-05-15T00:17:13.339Z,1007.92
2016-05-15T00:18:13.295Z,1007.9
2016-05-15T00:19:13.267Z,1007.93
2016-05-15T00:20:13.253Z,1007.93
2016-05-15T00:21:13.241Z,1007.97
2016-05-15T00:22:13.228Z,1007.93
2016-05-15T00:23:13.214Z,1007.95
2016-05-15T00:24:13.187Z,1007.99
2016-05-15T00:25:13.173Z,1007.94
2016-05-15T00:26:13.145Z,1007.97
2016-05-15T00:27:13.132Z,1007.95
2016-05-15T00:28:13.119Z,1007.97
2016-05-15T00:29:13.090Z,1007.97
2016-05-15T00:30:13.077Z,1007.91
2016-05-15T00:31:13.064Z,1007.94
2016-05-15T00:32:13.052Z,1007.93
2016-05-15T00:33:13.024Z,1007.92
2016-05-15T00:34:13.088Z,1007.92
2016-05-15T00:35:12.982Z,1007.9
2016-05-15T00:36:12.968Z,1007.91
2016-05-15T00:37:12.955Z,1007.88
2016-05-15T00:38:12.927Z,1007.9
2016-05-15T00:39:12.914Z,1007.9
2016-05-15T00:40:12.917Z,1007.94
2016-05-15T00:41:12.888Z,1007.89
2016-05-15T00:42:12.859Z,1007.97
2016-05-15T00:43:12.846Z,1007.94
2016-05-15T00:44:12.834Z,1007.99
2016-05-15T00:45:12.821Z,1007.97
2016-05-15T00:46:13.011Z,1007.92
2016-05-15T00:47:12.779Z,1007.96
2016-05-15T00:48:12.751Z,1007.97
2016-05-15T00:49:12.737Z,1007.98
2016-05-15T00:50:12.726Z,1007.99
2016-05-15T00:51:12.697Z,1007.99
2016-05-15T00:52:12.684Z,1007.98
2016-05-15T00:53:12.670Z,1007.98
2016-05-15T00:54:13.033Z,1007.93
2016-05-15T00:55:12.628Z,1007.98
2016-05-15T00:56:12.616Z,1007.95
2016-05-15T00:57:12.588Z,1007.98
2016-05-15T00:58:12.575Z,1007.99
2016-05-15T00:59:12.561Z,1007.98
2016-05-15T01:00:12.533Z,1007.99
2016-05-15T01:01:12.520Z,1008.02
2016-05-15T01:02:12.507Z,1008.01
2016-05-15T01:03:12.479Z,1007.97
2016-05-15T01:04:12.466Z,1007.98
2016-05-15T01:05:12.453Z,1007.96
2016-05-15T01:06:12.424Z,1007.97
2016-05-15T01:07:12.411Z,1008
2016-05-15T01:08:12.399Z,1007.96
2016-05-15T01:09:12.370Z,1007.98
2016-05-15T01:10:12.357Z,1007.95
2016-05-15T01:11:12.329Z,1007.93
2016-05-15T01:12:12.316Z,1007.95
2016-05-15T01:13:12.302Z,1007.92
2016-05-15T01:14:12.274Z,1007.92
2016-05-15T01:15:12.261Z,1007.94
2016-05-15T01:16:12.248Z,1007.93
2016-05-15T01:17:12.220Z,1007.93
2016-05-15T01:18:12.206Z,1007.99
2016-05-15T01:19:12.193Z,1007.95
2016-05-15T01:20:12.165Z,1007.95
2016-05-15T01:21:12.152Z,1007.93
2016-05-15T01:22:12.140Z,1007.95
2016-05-15T01:23:12.111Z,1007.96
2016-05-15T01:24:12.098Z,1007.95
2016-05-15T01:25:12.084Z,1007.91
2016-05-15T01:26:12.056Z,1007.92
2016-05-15T01:27:12.044Z,1007.95
2016-05-15T01:28:12.030Z,1007.96
2016-05-15T01:29:12.017Z,1007.92
2016-05-15T01:30:11.989Z,1007.96
2016-05-15T01:31:11.975Z,1007.94
2016-05-15T01:32:11.947Z,1007.99
2016-05-15T01:33:11.935Z,1008.02
2016-05-15T01:34:11.922Z,1008
2016-05-15T01:35:11.893Z,1008.04
2016-05-15T01:36:11.880Z,1007.98
2016-05-15T01:37:11.867Z,1008.03
2016-05-15T01:38:11.838Z,1008.01
2016-05-15T01:39:11.826Z,1008.02
2016-05-15T01:40:11.797Z,1008.02
2016-05-15T01:41:11.784Z,1008.06
2016-05-15T01:42:11.771Z,1008.1
2016-05-15T01:43:11.742Z,1008.05
2016-05-15T01:44:11.729Z,1008.06
2016-05-15T01:45:11.717Z,1008.08
2016-05-15T01:46:11.687Z,1008.12
2016-05-15T01:47:11.675Z,1008.15
2016-05-15T01:48:11.662Z,1008.17
2016-05-15T01:49:11.634Z,1008.16
2016-05-15T01:50:11.637Z,1008.11
2016-05-15T01:51:11.592Z,1008.12
2016-05-15T01:52:11.595Z,1008.13
2016-05-15T01:53:11.566Z,1008.1
2016-05-15T01:54:11.538Z,1008.17
2016-05-15T01:55:11.525Z,1008.16
2016-05-15T01:56:11.528Z,1008.18
2016-05-15T01:57:11.499Z,1008.16
2016-05-15T01:58:11.502Z,1008.13
2016-05-15T01:59:11.442Z,1008.13
2016-05-15T02:00:11.428Z,1008.17
2016-05-15T02:01:11.416Z,1008.15
2016-05-15T02:02:11.403Z,1008.15
2016-05-15T02:03:11.375Z,1008.17
2016-05-15T02:04:11.486Z,1008.18
2016-05-15T02:05:11.333Z,1008.22
2016-05-15T02:06:11.319Z,1008.2
2016-05-15T02:07:11.307Z,1008.22
2016-05-15T02:08:11.279Z,1008.19
2016-05-15T02:09:11.265Z,1008.22
2016-05-15T02:10:11.253Z,1008.2
2016-05-15T02:11:11.224Z,1008.15
2016-05-15T02:12:11.227Z,1008.2
2016-05-15T02:13:11.198Z,1008.18
2016-05-15T02:14:11.171Z,1008.21
2016-05-15T02:15:11.157Z,1008.2
2016-05-15T02:16:11.143Z,1008.18
2016-05-15T02:17:11.132Z,1008.22
2016-05-15T02:18:11.102Z,1008.17
2016-05-15T02:19:11.073Z,1008.24
2016-05-15T02:20:11.062Z,1008.25
2016-05-15T02:21:11.048Z,1008.22
2016-05-15T02:22:11.020Z,1008.26
2016-05-15T02:23:11.006Z,1008.2
2016-05-15T02:24:11.009Z,1008.22
2016-05-15T02:25:10.981Z,1008.23
2016-05-15T02:26:10.952Z,1008.27
2016-05-15T02:27:10.939Z,1008.28
2016-05-15T02:28:10.911Z,1008.29
2016-05-15T02:29:10.898Z,1008.31
2016-05-15T02:30:10.884Z,1008.26
2016-05-15T02:31:10.856Z,1008.3
2016-05-15T02:32:10.843Z,1008.27
2016-05-15T02:33:10.815Z,1008.31
2016-05-15T02:34:10.802Z,1008.25
2016-05-15T02:35:10.788Z,1008.3
2016-05-15T02:36:10.760Z,1008.23
2016-05-15T02:37:10.747Z,1008.23
2016-05-15T02:38:10.735Z,1008.27
2016-05-15T02:39:10.705Z,1008.23
2016-05-15T02:40:10.693Z,1008.22
2016-05-15T02:41:10.680Z,1008.24
2016-05-15T02:42:10.651Z,1008.24
2016-05-15T02:43:10.638Z,1008.28
2016-05-15T02:44:10.626Z,1008.24
2016-05-15T02:45:10.597Z,1008.26
2016-05-15T02:46:10.787Z,1008.23
2016-05-15T02:47:10.571Z,1008.25
2016-05-15T02:48:10.542Z,1008.23
2016-05-15T02:49:10.529Z,1008.27
2016-05-15T02:50:10.501Z,1008.26
2016-05-15T02:51:10.487Z,1008.24
2016-05-15T02:52:10.476Z,1008.22
2016-05-15T02:53:10.446Z,1008.23
2016-05-15T02:54:10.433Z,1008.23
2016-05-15T02:55:10.420Z,1008.22
2016-05-15T02:56:10.392Z,1008.21
2016-05-15T02:57:10.379Z,1008.23
2016-05-15T02:58:10.366Z,1008.26
2016-05-15T02:59:10.338Z,1008.25
2016-05-15T03:00:10.325Z,1008.27
2016-05-15T03:01:10.296Z,1008.23
2016-05-15T03:02:10.283Z,1008.25
2016-05-15T03:03:10.270Z,1008.19
2016-05-15T03:04:10.429Z,1008.23
2016-05-15T03:05:10.228Z,1008.2
2016-05-15T03:06:10.216Z,1008.28
2016-05-15T03:07:10.188Z,1008.25
2016-05-15T03:08:10.174Z,1008.24
2016-05-15T03:09:10.161Z,1008.28
2016-05-15T03:10:10.133Z,1008.32
2016-05-15T03:11:10.119Z,1008.29
2016-05-15T03:12:10.107Z,1008.26
2016-05-15T03:13:10.094Z,1008.27
2016-05-15T03:14:10.066Z,1008.3
2016-05-15T03:15:10.052Z,1008.27
2016-05-15T03:16:10.024Z,1008.28
2016-05-15T03:17:10.027Z,1008.29
2016-05-15T03:18:09.982Z,1008.29
2016-05-15T03:19:09.970Z,1008.27
2016-05-15T03:20:09.972Z,1008.27
2016-05-15T03:21:09.944Z,1008.28
2016-05-15T03:22:09.931Z,1008.33
2016-05-15T03:23:09.901Z,1008.37
2016-05-15T03:24:09.874Z,1008.34
2016-05-15T03:25:09.861Z,1008.39
2016-05-15T03:26:09.847Z,1008.39
2016-05-15T03:27:09.820Z,1008.42
2016-05-15T03:28:09.806Z,1008.45
2016-05-15T03:29:09.778Z,1008.45
2016-05-15T03:30:09.764Z,1008.41
2016-05-15T03:31:09.752Z,1008.37
2016-05-15T03:32:09.723Z,1008.4
2016-05-15T03:33:09.710Z,1008.45
2016-05-15T03:34:09.697Z,1008.44
2016-05-15T03:35:09.669Z,1008.47
2016-05-15T03:36:09.656Z,1008.48
2016-05-15T03:37:09.627Z,1008.48
2016-05-15T03:38:09.614Z,1008.44
2016-05-15T03:39:09.602Z,1008.46
2016-05-15T03:40:09.588Z,1008.39
2016-05-15T03:41:09.560Z,1008.43
2016-05-15T03:42:09.547Z,1008.36
2016-05-15T03:43:09.535Z,1008.41
2016-05-15T03:44:09.505Z,1008.39
2016-05-15T03:45:09.492Z,1008.35
2016-05-15T03:46:09.480Z,1008.36
2016-05-15T03:47:09.451Z,1008.35
2016-05-15T03:48:09.437Z,1008.37
2016-05-15T03:49:09.519Z,1008.36
2016-05-15T03:50:09.397Z,1008.36
2016-05-15T03:51:09.384Z,1008.41
2016-05-15T03:52:09.370Z,1008.41
2016-05-15T03:53:09.343Z,1008.42
2016-05-15T03:54:09.329Z,1008.44
2016-05-15T03:55:09.316Z,1008.43
2016-05-15T03:56:09.288Z,1008.45
2016-05-15T03:57:09.275Z,1008.46
2016-05-15T03:58:09.246Z,1008.49
2016-05-15T03:59:09.233Z,1008.44
2016-05-15T04:00:09.220Z,1008.5
2016-05-15T04:01:09.208Z,1008.44
2016-05-15T04:02:09.178Z,1008.48
2016-05-15T04:03:09.166Z,1008.47
2016-05-15T04:04:09.137Z,1008.52
2016-05-15T04:05:09.125Z,1008.52
2016-05-15T04:06:09.111Z,1008.53
2016-05-15T04:07:09.083Z,1008.51
2016-05-15T04:08:09.070Z,1008.53
2016-05-15T04:09:09.057Z,1008.52
2016-05-15T04:10:09.028Z,1008.51
2016-05-15T04:11:09.016Z,1008.56
2016-05-15T04:12:09.003Z,1008.52
2016-05-15T04:13:08.974Z,1008.57
2016-05-15T04:14:08.960Z,1008.57
2016-05-15T04:15:08.949Z,1008.56
2016-05-15T04:16:08.919Z,1008.62
2016-05-15T04:17:08.906Z,1008.64
2016-05-15T04:18:08.879Z,1008.64
2016-05-15T04:19:08.865Z,1008.66
2016-05-15T04:20:08.852Z,1008.64
2016-05-15T04:21:08.824Z,1008.68
2016-05-15T04:22:08.827Z,1008.68
2016-05-15T04:23:08.798Z,1008.66
2016-05-15T04:24:08.769Z,1008.64
2016-05-15T04:25:08.757Z,1008.62
2016-05-15T04:26:08.743Z,1008.63
2016-05-15T04:27:08.731Z,1008.67
2016-05-15T04:28:08.701Z,1008.62
2016-05-15T04:29:08.689Z,1008.6
2016-05-15T04:30:08.661Z,1008.66
2016-05-15T04:31:08.647Z,1008.65
2016-05-15T04:32:08.634Z,1008.62
2016-05-15T04:33:08.606Z,1008.66
2016-05-15T04:34:08.593Z,1008.66
2016-05-15T04:35:08.580Z,1008.68
2016-05-15T04:36:08.552Z,1008.67
2016-05-15T04:37:08.539Z,1008.71
2016-05-15T04:38:08.510Z,1008.71
2016-05-15T04:39:08.497Z,1008.68
2016-05-15T04:40:08.484Z,1008.68
2016-05-15T04:41:08.471Z,1008.66
2016-05-15T04:42:08.443Z,1008.69
2016-05-15T04:43:08.430Z,1008.68
2016-05-15T04:44:08.401Z,1008.67
2016-05-15T04:45:08.388Z,1008.71
2016-05-15T04:46:08.578Z,1008.68
2016-05-15T04:47:08.347Z,1008.66
2016-05-15T04:48:08.334Z,1008.74
2016-05-15T04:49:08.321Z,1008.69
2016-05-15T04:50:08.308Z,1008.71
2016-05-15T04:51:08.279Z,1008.67
2016-05-15T04:52:08.266Z,1008.67
2016-05-15T04:53:08.238Z,1008.69
2016-05-15T04:54:08.240Z,1008.71
2016-05-15T04:55:08.212Z,1008.66
2016-05-15T04:56:08.184Z,1008.66
2016-05-15T04:57:08.171Z,1008.72
2016-05-15T04:58:08.157Z,1008.69
2016-05-15T04:59:08.145Z,1008.69
2016-05-15T05:00:08.116Z,1008.67
2016-05-15T05:01:08.103Z,1008.69
2016-05-15T05:02:08.090Z,1008.67
2016-05-15T05:03:08.061Z,1008.68
2016-05-15T05:04:08.049Z,1008.68
2016-05-15T05:05:08.036Z,1008.68
2016-05-15T05:06:08.022Z,1008.75
2016-05-15T05:07:07.995Z,1008.69
2016-05-15T05:08:07.981Z,1008.73
2016-05-15T05:09:07.952Z,1008.76
2016-05-15T05:10:07.940Z,1008.78
2016-05-15T05:11:07.927Z,1008.79
2016-05-15T05:12:07.914Z,1008.81
2016-05-15T05:13:07.885Z,1008.78
2016-05-15T05:14:07.872Z,1008.85
2016-05-15T05:15:07.860Z,1008.86
2016-05-15T05:16:07.846Z,1008.88
2016-05-15T05:17:07.818Z,1008.87
2016-05-15T05:18:07.805Z,1008.91
2016-05-15T05:19:07.793Z,1008.94
2016-05-15T05:20:07.763Z,1008.95
2016-05-15T05:21:07.751Z,1008.93
2016-05-15T05:22:07.738Z,1008.92
2016-05-15T05:23:07.724Z,1008.94
2016-05-15T05:24:07.696Z,1008.96
2016-05-15T05:25:07.683Z,1008.97
2016-05-15T05:26:07.671Z,1008.99
2016-05-15T05:27:07.657Z,1008.98
2016-05-15T05:28:07.628Z,1009.04
2016-05-15T05:29:07.616Z,1008.99
2016-05-15T05:30:07.587Z,1009.02
2016-05-15T05:31:07.574Z,1009.01
2016-05-15T05:32:07.561Z,1009.01
2016-05-15T05:33:07.549Z,1009.01
2016-05-15T05:34:07.520Z,1009.03
2016-05-15T05:35:07.506Z,1008.95
2016-05-15T05:36:07.495Z,1008.98
2016-05-15T05:37:07.466Z,1009.01
2016-05-15T05:38:07.452Z,1009.04
2016-05-15T05:39:07.455Z,1009.02
2016-05-15T05:40:07.427Z,1009.08
2016-05-15T05:41:07.414Z,1009.07
2016-05-15T05:42:07.385Z,1009.15
2016-05-15T05:43:07.372Z,1009.1
2016-05-15T05:44:07.360Z,1009.1
2016-05-15T05:45:07.362Z,1009.09
2016-05-15T05:46:07.318Z,1009.06
2016-05-15T05:47:07.305Z,1009.11
2016-05-15T05:48:07.292Z,1009.13
2016-05-15T05:49:07.482Z,1009.15
2016-05-15T05:50:07.266Z,1009.12
2016-05-15T05:51:07.238Z,1009.15
2016-05-15T05:52:07.224Z,1009.17
2016-05-15T05:53:07.196Z,1009.24
2016-05-15T05:54:07.183Z,1009.22
2016-05-15T05:55:07.170Z,1009.25
2016-05-15T05:56:07.157Z,1009.21
2016-05-15T05:57:07.160Z,1009.25
2016-05-15T05:58:07.115Z,1009.19
2016-05-15T05:59:07.103Z,1009.16
2016-05-15T06:00:07.089Z,1009.14
2016-05-15T06:01:07.062Z,1009.13
2016-05-15T06:02:07.048Z,1009.19
2016-05-15T06:03:07.036Z,1009.24
2016-05-15T06:04:07.023Z,1009.24
2016-05-15T06:05:07.009Z,1009.27
2016-05-15T06:06:06.981Z,1009.28
2016-05-15T06:07:06.968Z,1009.25
2016-05-15T06:08:06.955Z,1009.27
2016-05-15T06:09:06.942Z,1009.21
2016-05-15T06:10:06.929Z,1009.29
2016-05-15T06:11:06.901Z,1009.3
2016-05-15T06:12:06.888Z,1009.37
2016-05-15T06:13:06.875Z,1009.38
2016-05-15T06:14:06.861Z,1009.36
2016-05-15T06:15:06.849Z,1009.35
2016-05-15T06:16:06.821Z,1009.38
2016-05-15T06:17:06.807Z,1009.36
2016-05-15T06:18:06.795Z,1009.36
2016-05-15T06:19:06.782Z,1009.42
2016-05-15T06:20:06.768Z,1009.35
2016-05-15T06:21:06.756Z,1009.36
2016-05-15T06:22:06.727Z,1009.38
2016-05-15T06:23:06.714Z,1009.36
2016-05-15T06:24:06.701Z,1009.38
2016-05-15T06:25:06.673Z,1009.39
2016-05-15T06:26:06.660Z,1009.37
2016-05-15T06:27:06.646Z,1009.41
2016-05-15T06:28:06.634Z,1009.37
2016-05-15T06:29:06.621Z,1009.38
2016-05-15T06:30:06.592Z,1009.42
2016-05-15T06:31:06.595Z,1009.42
2016-05-15T06:32:06.567Z,1009.37
2016-05-15T06:33:06.554Z,1009.46
2016-05-15T06:34:06.775Z,1009.41
2016-05-15T06:35:06.512Z,1009.44
2016-05-15T06:36:06.500Z,1009.43
2016-05-15T06:37:06.486Z,1009.41
2016-05-15T06:38:06.473Z,1009.44
2016-05-15T06:39:06.444Z,1009.43
2016-05-15T06:40:06.432Z,1009.4
2016-05-15T06:41:06.419Z,1009.45
2016-05-15T06:42:06.405Z,1009.41
2016-05-15T06:43:06.378Z,1009.45
2016-05-15T06:44:06.364Z,1009.39
2016-05-15T06:45:06.352Z,1009.44
2016-05-15T06:46:06.541Z,1009.46
2016-05-15T06:47:06.326Z,1009.44
2016-05-15T06:48:06.297Z,1009.52
2016-05-15T06:49:06.815Z,1009.47
2016-05-15T06:50:06.272Z,1009.52
2016-05-15T06:51:06.258Z,1009.54
2016-05-15T06:52:06.245Z,1009.51
2016-05-15T06:53:06.216Z,1009.51
2016-05-15T06:54:06.204Z,1009.56
2016-05-15T06:55:06.191Z,1009.57
2016-05-15T06:56:06.178Z,1009.52
2016-05-15T06:57:06.149Z,1009.58
2016-05-15T06:58:06.137Z,1009.57
2016-05-15T06:59:06.123Z,1009.53
2016-05-15T07:00:06.110Z,1009.57
2016-05-15T07:01:06.098Z,1009.57
2016-05-15T07:02:06.070Z,1009.58
2016-05-15T07:03:06.072Z,1009.61
2016-05-15T07:04:06.043Z,1009.61
2016-05-15T07:05:06.031Z,1009.63
2016-05-15T07:06:06.017Z,1009.62
2016-05-15T07:07:06.003Z,1009.64
2016-05-15T07:08:05.976Z,1009.65
2016-05-15T07:09:05.963Z,1009.71
2016-05-15T07:10:05.950Z,1009.69
2016-05-15T07:11:05.936Z,1009.75
2016-05-15T07:12:05.909Z,1009.74
2016-05-15T07:13:05.911Z,1009.73
2016-05-15T07:14:05.897Z,1009.74
2016-05-15T07:15:05.870Z,1009.75
2016-05-15T07:16:05.857Z,1009.72
2016-05-15T07:17:05.844Z,1009.76
2016-05-15T07:18:05.831Z,1009.75
2016-05-15T07:19:05.818Z,1009.69
2016-05-15T07:20:05.789Z,1009.71
2016-05-15T07:21:05.776Z,1009.74
2016-05-15T07:22:05.763Z,1009.75
2016-05-15T07:23:05.751Z,1009.69
2016-05-15T07:24:05.738Z,1009.71
2016-05-15T07:25:05.709Z,1009.71
2016-05-15T07:26:05.696Z,1009.78
2016-05-15T07:27:05.683Z,1009.77
2016-05-15T07:28:05.670Z,1009.8
2016-05-15T07:29:05.657Z,1009.81
2016-05-15T07:30:05.645Z,1009.74
2016-05-15T07:31:05.616Z,1009.81
2016-05-15T07:32:05.603Z,1009.8
2016-05-15T07:33:05.590Z,1009.79
2016-05-15T07:34:06.140Z,1009.77
2016-05-15T07:35:05.564Z,1009.81
2016-05-15T07:36:05.535Z,1009.82
2016-05-15T07:37:05.523Z,1009.84
2016-05-15T07:38:05.509Z,1009.84
2016-05-15T07:39:05.517Z,1009.89
2016-05-15T07:40:05.547Z,1009.85
2016-05-15T07:41:05.578Z,1009.85
2016-05-15T07:42:05.592Z,1009.83
2016-05-15T07:43:05.623Z,1009.82
2016-05-15T07:44:05.641Z,1009.79
2016-05-15T07:45:05.643Z,1009.78
2016-05-15T07:46:05.631Z,1009.75
2016-05-15T07:47:05.649Z,1009.72
2016-05-15T07:48:05.636Z,1009.81
2016-05-15T07:49:05.650Z,1009.8
2016-05-15T07:50:05.627Z,1009.8
2016-05-15T07:51:05.619Z,1009.82
2016-05-15T07:52:05.611Z,1009.82
2016-05-15T07:53:05.589Z,1009.86
2016-05-15T07:54:05.579Z,1009.85
2016-05-15T07:55:05.568Z,1009.85
2016-05-15T07:56:05.557Z,1009.87
2016-05-15T07:57:05.546Z,1009.88
2016-05-15T07:58:05.535Z,1009.84
2016-05-15T07:59:05.523Z,1009.9
2016-05-15T08:00:05.512Z,1009.94
2016-05-15T08:01:05.499Z,1009.97
2016-05-15T08:02:05.486Z,1009.95
2016-05-15T08:03:05.475Z,1009.95
2016-05-15T08:04:05.462Z,1009.91
2016-05-15T08:05:05.450Z,1009.93
2016-05-15T08:06:05.437Z,1009.98
2016-05-15T08:07:05.425Z,1009.96
2016-05-15T08:08:05.413Z,1009.91
2016-05-15T08:09:05.415Z,1009.9
2016-05-15T08:10:05.403Z,1009.92
2016-05-15T08:11:05.389Z,1009.92
2016-05-15T08:12:05.376Z,1009.87
2016-05-15T08:13:05.363Z,1009.91
2016-05-15T08:14:05.366Z,1009.85
2016-05-15T08:15:05.354Z,1009.86
2016-05-15T08:16:05.356Z,1009.84
2016-05-15T08:17:05.327Z,1009.82
2016-05-15T08:18:05.315Z,1009.86
2016-05-15T08:19:05.410Z,1009.82
2016-05-15T08:20:05.304Z,1009.82
2016-05-15T08:21:05.291Z,1009.8
2016-05-15T08:22:05.279Z,1009.76
2016-05-15T08:23:05.265Z,1009.79
2016-05-15T08:24:05.253Z,1009.77
2016-05-15T08:25:05.240Z,1009.77
2016-05-15T08:26:05.242Z,1009.78
2016-05-15T08:27:05.229Z,1009.75
2016-05-15T08:28:05.216Z,1009.74
2016-05-15T08:29:05.204Z,1009.74
2016-05-15T08:30:05.206Z,1009.7
2016-05-15T08:31:05.192Z,1009.71
2016-05-15T08:32:05.180Z,1009.72
2016-05-15T08:33:05.167Z,1009.75
2016-05-15T08:34:05.155Z,1009.73
2016-05-15T08:35:05.141Z,1009.79
2016-05-15T08:36:05.129Z,1009.76
2016-05-15T08:37:05.131Z,1009.78
2016-05-15T08:38:05.118Z,1009.7
2016-05-15T08:39:05.090Z,1009.69
2016-05-15T08:40:05.092Z,1009.73
2016-05-15T08:41:05.079Z,1009.75
2016-05-15T08:42:05.066Z,1009.69
2016-05-15T08:43:05.054Z,1009.7
2016-05-15T08:44:05.041Z,1009.72
2016-05-15T08:45:05.043Z,1009.78
2016-05-15T08:46:05.030Z,1009.75
2016-05-15T08:47:05.018Z,1009.78
2016-05-15T08:48:05.004Z,1009.73
2016-05-15T08:49:04.991Z,1009.81
2016-05-15T08:50:04.979Z,1009.74
2016-05-15T08:51:04.966Z,1009.72
2016-05-15T08:52:04.953Z,1009.75
2016-05-15T08:53:04.940Z,1009.76
2016-05-15T08:54:04.926Z,1009.77
2016-05-15T08:55:04.914Z,1009.77
2016-05-15T08:56:04.901Z,1009.76
2016-05-15T08:57:04.904Z,1009.79
2016-05-15T08:58:04.875Z,1009.81
2016-05-15T08:59:04.878Z,1009.78
2016-05-15T09:00:04.865Z,1009.83
2016-05-15T09:01:04.852Z,1009.79
2016-05-15T09:02:04.823Z,1009.82
2016-05-15T09:03:04.826Z,1009.83
2016-05-15T09:04:04.813Z,1009.84
2016-05-15T09:05:04.801Z,1009.94
2016-05-15T09:06:04.787Z,1009.74
2016-05-15T09:07:04.774Z,1009.77
2016-05-15T09:08:04.761Z,1009.83
2016-05-15T09:09:04.748Z,1009.86
2016-05-15T09:10:04.735Z,1010.02
2016-05-15T09:11:04.723Z,1009.85
2016-05-15T09:12:04.710Z,1009.81
2016-05-15T09:13:04.712Z,1009.9
2016-05-15T09:14:04.700Z,1009.87
2016-05-15T09:15:04.686Z,1009.94
2016-05-15T09:16:04.673Z,1009.86
2016-05-15T09:17:04.660Z,1009.85
2016-05-15T09:18:04.649Z,1010.03
2016-05-15T09:19:04.635Z,1010.05
2016-05-15T09:20:04.762Z,1009.97
2016-05-15T09:21:04.609Z,1009.89
2016-05-15T09:22:04.611Z,1009.88
2016-05-15T09:23:04.599Z,1009.9
2016-05-15T09:24:04.585Z,1009.9
2016-05-15T09:25:04.573Z,1009.85
2016-05-15T09:26:04.560Z,1009.87
2016-05-15T09:27:04.547Z,1009.85
2016-05-15T09:28:04.534Z,1009.88
2016-05-15T09:29:04.521Z,1009.91
2016-05-15T09:30:04.508Z,1009.93
2016-05-15T09:31:04.511Z,1009.89
2016-05-15T09:32:04.498Z,1009.94
2016-05-15T09:33:04.484Z,1009.92
2016-05-15T09:34:04.472Z,1009.94
2016-05-15T09:35:04.787Z,1009.89
2016-05-15T09:36:04.446Z,1009.86
2016-05-15T09:37:04.433Z,1009.85
2016-05-15T09:38:04.420Z,1009.84
2016-05-15T09:39:04.408Z,1009.83
2016-05-15T09:40:04.394Z,1009.77
2016-05-15T09:41:04.381Z,1009.77
2016-05-15T09:42:04.384Z,1009.78
2016-05-15T09:43:04.355Z,1009.83
2016-05-15T09:44:04.358Z,1009.83
2016-05-15T09:45:04.345Z,1009.93
2016-05-15T09:46:04.333Z,1009.82
2016-05-15T09:47:04.319Z,1009.91
2016-05-15T09:48:04.307Z,1010.09
2016-05-15T09:49:04.293Z,1009.83
2016-05-15T09:50:04.280Z,1009.85
2016-05-15T09:51:04.268Z,1009.78
2016-05-15T09:52:04.255Z,1009.74
2016-05-15T09:53:04.257Z,1009.81
2016-05-15T09:54:04.245Z,1010.08
2016-05-15T09:55:04.231Z,1009.82
2016-05-15T09:56:04.218Z,1009.97
2016-05-15T09:57:04.206Z,1009.87
2016-05-15T09:58:04.192Z,1009.82
2016-05-15T09:59:04.180Z,1009.82
2016-05-15T10:00:04.167Z,1009.82
2016-05-15T10:01:04.154Z,1009.71
2016-05-15T10:02:04.141Z,1009.88
2016-05-15T10:03:04.128Z,1009.67
2016-05-15T10:04:04.131Z,1009.71
2016-05-15T10:05:04.539Z,1009.8
2016-05-15T10:06:04.105Z,1009.88
2016-05-15T10:07:04.092Z,1009.78
2016-05-15T10:08:04.095Z,1009.77
2016-05-15T10:09:04.081Z,1009.96
2016-05-15T10:10:04.068Z,1009.91
2016-05-15T10:11:04.071Z,1009.94
2016-05-15T10:12:04.059Z,1009.93
2016-05-15T10:13:04.061Z,1009.95
2016-05-15T10:14:04.048Z,1009.95
2016-05-15T10:15:04.036Z,1009.94
2016-05-15T10:16:04.038Z,1009.88
2016-05-15T10:17:04.025Z,1009.9
2016-05-15T10:18:04.027Z,1009.88
2016-05-15T10:19:04.016Z,1009.85
2016-05-15T10:20:04.346Z,1009.85
2016-05-15T10:21:04.005Z,1009.94
2016-05-15T10:22:04.007Z,1009.88
2016-05-15T10:23:03.993Z,1009.92
2016-05-15T10:24:03.982Z,1009.85
2016-05-15T10:25:03.984Z,1009.91
2016-05-15T10:26:03.971Z,1010.08
2016-05-15T10:27:03.973Z,1009.97
2016-05-15T10:28:03.961Z,1010.01
2016-05-15T10:29:03.948Z,1009.9
2016-05-15T10:30:03.951Z,1009.79
2016-05-15T10:31:03.953Z,1009.81
2016-05-15T10:32:03.940Z,1009.86
2016-05-15T10:33:03.928Z,1009.92
2016-05-15T10:34:03.915Z,1009.88
2016-05-15T10:35:03.917Z,1009.85
2016-05-15T10:36:03.903Z,1009.86
2016-05-15T10:37:03.907Z,1009.86
2016-05-15T10:38:03.895Z,1009.93
2016-05-15T10:39:03.881Z,1009.98
2016-05-15T10:40:03.883Z,1010.01
2016-05-15T10:41:03.872Z,1010.22
2016-05-15T10:42:03.858Z,1010.18
2016-05-15T10:43:03.861Z,1010.11
2016-05-15T10:44:03.847Z,1010.04
2016-05-15T10:45:03.835Z,1010
2016-05-15T10:46:03.822Z,1009.97
2016-05-15T10:47:03.809Z,1009.96
2016-05-15T10:48:03.811Z,1009.97
2016-05-15T10:49:03.799Z,1009.97
2016-05-15T10:50:03.785Z,1010.08
2016-05-15T10:51:03.774Z,1010.09
2016-05-15T10:52:03.776Z,1010.03
2016-05-15T10:53:03.762Z,1010.07
2016-05-15T10:54:03.749Z,1009.86
2016-05-15T10:55:03.736Z,1009.84
2016-05-15T10:56:03.740Z,1009.84
2016-05-15T10:57:03.742Z,1009.82
2016-05-15T10:58:03.729Z,1009.89
2016-05-15T10:59:03.715Z,1009.87
2016-05-15T11:00:03.704Z,1009.94
2016-05-15T11:01:03.706Z,1009.93
2016-05-15T11:02:03.693Z,1009.92
2016-05-15T11:03:03.680Z,1009.91
2016-05-15T11:04:03.668Z,1009.87
2016-05-15T11:05:03.653Z,1009.82
2016-05-15T11:06:03.642Z,1009.85
2016-05-15T11:07:03.628Z,1009.88
2016-05-15T11:08:03.631Z,1009.88
2016-05-15T11:09:03.617Z,1009.94
2016-05-15T11:10:03.606Z,1009.95
2016-05-15T11:11:03.592Z,1009.97
2016-05-15T11:12:03.595Z,1009.97
2016-05-15T11:13:03.566Z,1010.01
2016-05-15T11:14:03.553Z,1010.01
2016-05-15T11:15:03.555Z,1010.05
2016-05-15T11:16:03.544Z,1010.05
2016-05-15T11:17:03.530Z,1010.05
2016-05-15T11:18:03.533Z,1009.95
2016-05-15T11:19:03.519Z,1009.98
2016-05-15T11:20:03.507Z,1010
2016-05-15T11:21:03.494Z,1009.95
2016-05-15T11:22:03.496Z,1009.93
2016-05-15T11:23:03.484Z,1010.12
2016-05-15T11:24:03.471Z,1010.01
2016-05-15T11:25:03.473Z,1010
2016-05-15T11:26:03.460Z,1009.98
2016-05-15T11:27:03.448Z,1010.03
2016-05-15T11:28:03.434Z,1009.97
2016-05-15T11:29:03.437Z,1010.09
2016-05-15T11:30:03.956Z,1010.02
2016-05-15T11:31:03.412Z,1010.01
2016-05-15T11:32:03.398Z,1010.05
2016-05-15T11:33:03.401Z,1010.11
2016-05-15T11:34:03.404Z,1010.09
2016-05-15T11:35:03.392Z,1010.03
2016-05-15T11:36:03.394Z,1010.05
2016-05-15T11:37:03.381Z,1010.06
2016-05-15T11:38:03.383Z,1010.07
2016-05-15T11:39:03.370Z,1010.09
2016-05-15T11:40:03.373Z,1010.06
2016-05-15T11:41:03.361Z,1010.02
2016-05-15T11:42:03.363Z,1010.06
2016-05-15T11:43:03.366Z,1010.16
2016-05-15T11:44:03.352Z,1010.01
2016-05-15T11:45:03.356Z,1010.04
2016-05-15T11:46:03.342Z,1010.02
2016-05-15T11:47:03.361Z,1010.04
2016-05-15T11:48:03.347Z,1010.06
2016-05-15T11:49:03.350Z,1010
2016-05-15T11:50:03.337Z,1010.08
2016-05-15T11:51:03.341Z,1010.04
2016-05-15T11:52:03.343Z,1010.08
2016-05-15T11:53:03.330Z,1010.16
2016-05-15T11:54:03.332Z,1010.1
2016-05-15T11:55:03.335Z,1010.2
2016-05-15T11:56:03.337Z,1010.06
2016-05-15T11:57:03.341Z,1010.18
2016-05-15T11:58:03.360Z,1010.14
2016-05-15T11:59:03.346Z,1010.14
2016-05-15T12:00:03.317Z,1010.1
2016-05-15T12:01:03.320Z,1010.09
2016-05-15T12:02:03.323Z,1010.07
2016-05-15T12:03:03.342Z,1010.05
2016-05-15T12:04:03.329Z,1010.06
2016-05-15T12:05:03.315Z,1010.14
2016-05-15T12:06:03.318Z,1010.05
2016-05-15T12:07:03.305Z,1010.04